Wollogorang, Australia
Current Conditions -  °F | °C
As of 1:00 PM on Saturday 25 Oct 2014 (Local Time) from YGTE Reporting Station
Scattered Clouds Scattered Clouds  
Wind Chill: 90°   Ceiling: Unl
Heat Index: 93°   Visibility: 6mi
Dew Point: 68°   Wind: 7mph
Humidity: 49%   Direction: 150°SSE
Pressure: 29.91"   Gusts: NA
Location:  17.2°S, 137.93°E
Report Text: YGTE 250400Z AUTO 15006KT 080V230 9999 // SCT057 32/20 Q1013
Loading
Personal Weather Stations






























Interactive Weather Map
Tropical Storm Tracking
New forecast layout! Learn more

10-Day Weather Forecast

Advertisements
Track Severe Weather on mobile